Darstellungsparameter: Aktuell verwendete Einstellungen:
Skalierung der Graphiken ... ?
xyx+y,   Skalierungsfaktor:      Skalierung: Modus: x, Faktor: 1
Darstellungszeitraum ... ?
Vom - - bis: - -   Zeitraum: 16.01.2021 - 16.01.2021
Min/Max/Avg-Anzeige ... ?
Zeige MMA aktuell
Zeige MMA Monat
Zeige MMA alles
Zeige --A aktuell
Zeige --A Monat
Zeige --A alles
Keine MMA-Anzeige
MMA:
Average (ber die Originaldaten)
MMA-Basis: 16.01.2021 - 16.01.2021
Quicknavigation für Darstellung... ?
Tage:      1T, 2T, 3T, 5T -1T -2T -3T -5T +1T +2T +3T +5T
Wochen: 1W, 2W, 3W -1W -2W -3W +1W +2W +3W
Monate: 1M, 3M, 6M -1M -3M -6M +1M +3M +6M
Jahre:    1J, 3J, 5J, 10J -1J -3J -5J -10J +1J +3J +5J +10J
Nutze für die Darstellung ... ?
Originaldaten oder Mittelwerte auf ...
Stundenbasis Tagesbasis Wochenbasis
Monatsbasis Jahresbasis      Datenbasis: Original-Daten
Darstellen als:
Statistik (Auto) Statistik J:M      Darstellung:

Der gewünschte Datumsbereich war nicht gültig/verfügbar und wurde korrigiert....
Das angegebene Enddatum (28.03.2030 23:59:59) liegt in der Zukunft.
Das angegebene Startdatum (26.03.2030 00:00:00) liegt in der Zukunft.


Zur Graphik,    zurück zur Übersicht aller Sensoren.
 
Tabellarische Datenbersicht: ?
 
Sensor: Nr:Datum:Temp:Abs-Feuchte:Windchill:Wind:
Aussen-T/F 1 16-01-2021 01:00:00 0.9 C 4.38 g/m*3 -1.71 C 8.1 km/h
2 16-01-2021 01:05:00 0.9 C 4.38 g/m*3 0.9 C 4.8 km/h
3 16-01-2021 01:10:00 0.9 C 4.28 g/m*3 -1.71 C 8.1 km/h
4 16-01-2021 01:15:00 0.9 C 4.18 g/m*3 -1.71 C 8.1 km/h
5 16-01-2021 01:20:00 0.9 C 4.12 g/m*3 -1.71 C 8.1 km/h
6 16-01-2021 01:25:00 0.9 C 4.07 g/m*3 -1.71 C 8.1 km/h
7 16-01-2021 01:30:00 0.9 C 4.07 g/m*3 -1.71 C 8.1 km/h
8 16-01-2021 01:35:00 0.9 C 4.02 g/m*3 -1.14 C 6.4 km/h
9 16-01-2021 01:40:00 0.9 C 4.07 g/m*3 0.9 C 4.8 km/h
10 16-01-2021 01:45:00 0.9 C 4.07 g/m*3 0.9 C 4.8 km/h
11 16-01-2021 01:50:00 0.9 C 4.02 g/m*3 -1.71 C 8.1 km/h
12 16-01-2021 01:55:00 0.9 C 4.02 g/m*3 0.9 C 1.6 km/h
13 16-01-2021 02:00:00 0.9 C 4.07 g/m*3 -1.14 C 6.4 km/h
14 16-01-2021 02:05:00 0.8 C 3.99 g/m*3 0.8 C 1.6 km/h
15 16-01-2021 02:10:00 0.8 C 4.04 g/m*3 0.8 C 1.6 km/h
16 16-01-2021 02:15:00 0.8 C 4.1 g/m*3 0.8 C 1.6 km/h
17 16-01-2021 02:20:00 0.8 C 4.04 g/m*3 -1.26 C 6.4 km/h
18 16-01-2021 02:25:00 0.8 C 4.04 g/m*3 0.8 C 0 km/h
19 16-01-2021 02:30:00 0.8 C 4.1 g/m*3 -1.26 C 6.4 km/h
20 16-01-2021 02:35:00 0.8 C 4.1 g/m*3 -1.26 C 6.4 km/h
21 16-01-2021 02:40:00 0.8 C 4.04 g/m*3 -1.26 C 6.4 km/h
22 16-01-2021 02:45:00 0.8 C 4.04 g/m*3 -1.26 C 6.4 km/h
23 16-01-2021 02:50:00 0.7 C 4.07 g/m*3 0.7 C 4.8 km/h
24 16-01-2021 02:55:00 0.7 C 4.02 g/m*3 0.7 C 4.8 km/h
25 16-01-2021 03:00:00 0.7 C 4.07 g/m*3 0.7 C 4.8 km/h
Sensor: Nr:Datum:Temp:Abs-Feuchte:Windchill:Wind:
Aussen-T/F 26 16-01-2021 03:05:00 0.7 C 4.07 g/m*3 0.7 C 3.2 km/h
27 16-01-2021 03:10:00 0.7 C 4.07 g/m*3 0.7 C 4.8 km/h
28 16-01-2021 03:15:00 0.7 C 4.07 g/m*3 0.7 C 3.2 km/h
29 16-01-2021 03:20:00 0.7 C 4.07 g/m*3 0.7 C 1.6 km/h
30 16-01-2021 03:25:00 0.6 C 4.04 g/m*3 0.6 C 3.2 km/h
31 16-01-2021 03:30:00 0.6 C 4.04 g/m*3 0.6 C 4.8 km/h
32 16-01-2021 03:35:00 0.6 C 4.09 g/m*3 0.6 C 3.2 km/h
33 16-01-2021 03:40:00 0.6 C 4.09 g/m*3 0.6 C 0 km/h
34 16-01-2021 03:45:00 0.6 C 4.09 g/m*3 0.6 C 0 km/h
35 16-01-2021 03:50:00 0.5 C 4.06 g/m*3 0.5 C 0 km/h
36 16-01-2021 03:55:00 0.5 C 4.11 g/m*3 0.5 C 0 km/h
37 16-01-2021 04:00:00 0.4 C 4.08 g/m*3 0.4 C 0 km/h
38 16-01-2021 04:05:00 0.4 C 4.08 g/m*3 0.4 C 0 km/h
39 16-01-2021 04:10:00 0.4 C 4.08 g/m*3 0.4 C 0 km/h
40 16-01-2021 04:15:00 0.4 C 4.08 g/m*3 0.4 C 0 km/h
41 16-01-2021 04:20:00 0.3 C 4.11 g/m*3 0.3 C 0 km/h
42 16-01-2021 04:25:00 0.3 C 4.11 g/m*3 0.3 C 0 km/h
43 16-01-2021 04:30:00 0.3 C 4.11 g/m*3 0.3 C 0 km/h
44 16-01-2021 04:35:00 0.2 C 4.08 g/m*3 0.2 C 1.6 km/h
45 16-01-2021 04:40:00 0.2 C 4.13 g/m*3 0.2 C 0 km/h
46 16-01-2021 04:45:00 0.2 C 4.13 g/m*3 0.2 C 0 km/h
47 16-01-2021 04:50:00 0.2 C 4.13 g/m*3 0.2 C 0 km/h
48 16-01-2021 04:55:00 0.1 C 4.1 g/m*3 0.1 C 0 km/h
49 16-01-2021 05:00:00 0.1 C 4.1 g/m*3 0.1 C 0 km/h
50 16-01-2021 05:05:00 0.1 C 4.15 g/m*3 0.1 C 0 km/h
Sensor: Nr:Datum:Temp:Abs-Feuchte:Windchill:Wind:
Aussen-T/F 51 16-01-2021 05:10:00 0.1 C 4.15 g/m*3 0.1 C 0 km/h
52 16-01-2021 05:15:00 0.1 C 4.15 g/m*3 0.1 C 0 km/h
53 16-01-2021 05:20:00 0.1 C 4.15 g/m*3 0.1 C 0 km/h
54 16-01-2021 05:25:00 0.1 C 4.2 g/m*3 0.1 C 0 km/h
55 16-01-2021 05:30:00 0.1 C 4.2 g/m*3 0.1 C 0 km/h
56 16-01-2021 05:35:00 0.1 C 4.2 g/m*3 0.1 C 1.6 km/h
57 16-01-2021 05:40:00 0.1 C 4.2 g/m*3 0.1 C 0 km/h
58 16-01-2021 05:45:00 0.1 C 4.2 g/m*3 0.1 C 1.6 km/h
59 16-01-2021 05:50:00 0.1 C 4.2 g/m*3 0.1 C 3.2 km/h
60 16-01-2021 05:55:00 0 C 4.12 g/m*3 0 C 4.8 km/h
61 16-01-2021 06:00:00 0.1 C 4.15 g/m*3 0.1 C 4.8 km/h
62 16-01-2021 06:05:00 0.1 C 4.15 g/m*3 0.1 C 0 km/h
63 16-01-2021 06:10:00 0.1 C 4.1 g/m*3 0.1 C 3.2 km/h
64 16-01-2021 06:15:00 0.2 C 4.13 g/m*3 0.2 C 1.6 km/h
65 16-01-2021 06:20:00 0.2 C 4.18 g/m*3 0.2 C 0 km/h
66 16-01-2021 06:25:00 0.2 C 4.18 g/m*3 0.2 C 0 km/h
67 16-01-2021 06:30:00 0.2 C 4.18 g/m*3 0.2 C 0 km/h
68 16-01-2021 06:35:00 0.2 C 4.18 g/m*3 0.2 C 0 km/h
69 16-01-2021 06:40:00 0.1 C 4.15 g/m*3 0.1 C 0 km/h
70 16-01-2021 06:45:00 0.1 C 4.15 g/m*3 0.1 C 0 km/h

Legende:
   Min
   Max


Maximal/Minimal-Werte vom 16.01.2021 - 16.01.2021

Sensor Min Max Avg
Temp
(Aussen-T/F)
0 °C
16-01-2021  05:55:00
0.9 °C
16-01-2021  01:00:00
0.48 °C
Abs-Feuchte
(Aussen-T/F)
3.99 g/m*3
16-01-2021  02:05:00
4.38 g/m*3
16-01-2021  01:00:00
4.06 g/m*3
Windchill
(Aussen-T/F)
-1.71 C
16-01-2021  01:00:00
0.9 C
16-01-2021  01:05:00
0.02 C

Die Daten stammen von einer Davis Vantage Pro 2 Wetter-Station und werden unter Linux mit der Software wview2wettercgi und aufbereitet. Alle Angaben erfolgen ohne Gewähr für ihre Vollständigkeit oder Richtigkeit.
Kontakt: Rainer Krienke krienke@uni-koblenz.de . Meine Webseiten an der Uni Koblenz oder privat.
Version: $Revision: 0.78 $